Terminal Aerodrome Forecast
Issued by NWS

Home | Current Version | Previous Version | Text Only | Print | Product List | Glossary Off
Versions: 1 2 3 4 5 6 7 8 9 10 11 12 13 14 15 16 17 18 19 20

800
FTUS41 KCLE 260522
TAFFDY
TAF
KFDY 260522Z 2606/2706 27010KT P6SM SCT025 OVC040
     FM261300 24008KT P6SM SCT025 BKN070
     FM261800 22015G25KT P6SM BKN070
     FM270000 22010KT P6SM SCT070=

USA.gov is the U.S. government's official web portal to all federal, state and local government web resources and services.